createdAt,value
2017-08-29T00:02:19.347Z,69.30
2017-08-29T00:04:46.392Z,66.60
2017-08-29T00:07:13.406Z,65.40
2017-08-29T00:09:40.468Z,64.50
2017-08-29T00:12:07.488Z,64.20
2017-08-29T00:14:34.526Z,64.40
2017-08-29T00:17:01.573Z,64.40
2017-08-29T00:19:28.606Z,65.30
2017-08-29T00:21:55.788Z,69.40
2017-08-29T00:24:22.799Z,68.20
2017-08-29T00:26:49.855Z,67.10
2017-08-29T00:29:16.890Z,65.70
2017-08-29T00:31:43.903Z,65.00
2017-08-29T00:34:10.941Z,64.50
2017-08-29T00:36:37.958Z,64.30
2017-08-29T00:39:05.003Z,65.10
2017-08-29T00:41:32.025Z,65.70
2017-08-29T00:43:59.099Z,65.70
2017-08-29T00:46:26.110Z,66.30
2017-08-29T00:48:53.159Z,68.90
2017-08-29T00:51:20.220Z,67.60
2017-08-29T00:53:47.703Z,66.90
2017-08-29T00:56:14.751Z,67.90
2017-08-29T00:58:41.808Z,70.20
2017-08-29T01:01:08.827Z,71.70
2017-08-29T01:03:35.874Z,68.30
2017-08-29T01:06:02.899Z,66.30
2017-08-29T01:08:30.363Z,65.20
2017-08-29T01:10:57.410Z,65.20
2017-08-29T01:13:24.450Z,65.20
2017-08-29T01:15:51.506Z,65.80
2017-08-29T01:18:18.555Z,65.50
2017-08-29T01:20:46.382Z,64.10
2017-08-29T01:23:13.439Z,64.00
2017-08-29T01:25:40.490Z,64.00
2017-08-29T01:28:07.541Z,66.30
2017-08-29T01:30:34.566Z,69.60
2017-08-29T01:33:01.619Z,67.70
2017-08-29T01:35:28.679Z,66.20
2017-08-29T01:37:55.693Z,66.20
2017-08-29T01:40:22.739Z,66.10
2017-08-29T01:42:49.789Z,65.80
2017-08-29T01:45:16.816Z,65.00
2017-08-29T01:47:43.879Z,67.20
2017-08-29T01:50:10.900Z,71.00
2017-08-29T01:52:37.975Z,71.00
2017-08-29T01:55:05.008Z,67.70
2017-08-29T01:57:32.037Z,66.10
2017-08-29T01:59:59.104Z,65.40
2017-08-29T02:02:26.111Z,64.90
2017-08-29T02:04:53.130Z,64.70
2017-08-29T02:07:20.198Z,65.10
2017-08-29T02:09:47.217Z,65.00
2017-08-29T02:12:14.306Z,64.30
2017-08-29T02:14:41.334Z,64.40
2017-08-29T02:17:08.408Z,64.60
2017-08-29T02:19:35.426Z,65.00
2017-08-29T02:22:02.459Z,65.00
2017-08-29T02:24:29.486Z,65.40
2017-08-29T02:26:56.519Z,64.60
2017-08-29T02:29:23.573Z,64.70
2017-08-29T02:31:50.583Z,65.30
2017-08-29T02:34:17.612Z,65.00
2017-08-29T02:36:44.683Z,65.00
2017-08-29T02:39:11.699Z,64.70
2017-08-29T02:41:38.748Z,64.50
2017-08-29T02:44:05.782Z,69.40
2017-08-29T02:46:32.811Z,75.70
2017-08-29T02:48:59.870Z,78.90
2017-08-29T02:51:26.894Z,73.60
2017-08-29T02:53:53.944Z,68.60
2017-08-29T02:56:20.972Z,68.10
2017-08-29T02:58:47.990Z,68.30
2017-08-29T03:01:15.059Z,68.50
2017-08-29T03:03:42.087Z,67.50
2017-08-29T03:06:09.126Z,67.70
2017-08-29T03:08:36.191Z,68.20
2017-08-29T03:11:03.218Z,66.00
2017-08-29T03:13:30.270Z,65.40
2017-08-29T03:15:57.326Z,65.20
2017-08-29T03:18:24.353Z,65.30
2017-08-29T03:20:51.427Z,65.10
2017-08-29T03:23:18.463Z,64.90
2017-08-29T03:25:45.491Z,64.50
2017-08-29T03:28:12.536Z,64.00
2017-08-29T03:30:39.560Z,64.60
2017-08-29T03:33:06.583Z,64.70
2017-08-29T03:35:33.651Z,64.70
2017-08-29T03:38:00.687Z,67.10
2017-08-29T03:40:27.732Z,66.40
2017-08-29T03:42:54.739Z,64.80
2017-08-29T03:45:21.807Z,64.80
2017-08-29T03:47:48.859Z,64.90
2017-08-29T03:50:15.911Z,65.00
2017-08-29T03:52:42.961Z,66.90
2017-08-29T03:55:09.974Z,67.30
2017-08-29T03:57:37.038Z,66.40
2017-08-29T04:00:04.090Z,67.60
2017-08-29T04:02:31.098Z,65.50
2017-08-29T04:04:58.138Z,64.50
2017-08-29T04:07:25.174Z,63.90
2017-08-29T04:09:52.230Z,63.80
2017-08-29T04:12:19.283Z,64.10
2017-08-29T04:14:46.315Z,64.40
2017-08-29T04:17:13.336Z,63.80
2017-08-29T04:19:40.477Z,63.60
2017-08-29T04:22:07.503Z,63.30
2017-08-29T04:24:34.532Z,63.90
2017-08-29T04:27:02.334Z,68.70
2017-08-29T04:29:29.347Z,68.50
2017-08-29T04:31:56.417Z,65.20
2017-08-29T04:34:23.430Z,64.80
2017-08-29T04:36:51.218Z,64.30
2017-08-29T04:39:18.278Z,64.20
2017-08-29T04:41:45.285Z,64.70
2017-08-29T04:44:12.331Z,65.40
2017-08-29T04:46:39.355Z,64.40
2017-08-29T04:49:06.407Z,64.10
2017-08-29T04:51:33.442Z,63.90
2017-08-29T04:54:00.474Z,63.70
2017-08-29T04:56:27.559Z,63.40
2017-08-29T04:58:54.591Z,68.20
2017-08-29T05:01:21.678Z,72.10
2017-08-29T05:03:48.718Z,66.70
2017-08-29T05:06:15.750Z,65.10
2017-08-29T05:08:42.759Z,63.70
2017-08-29T05:11:09.826Z,63.10
2017-08-29T05:13:36.839Z,63.10
2017-08-29T05:16:03.895Z,63.40
2017-08-29T05:18:30.898Z,64.30
2017-08-29T05:20:57.935Z,63.60
2017-08-29T05:23:25.015Z,64.60
2017-08-29T05:25:52.062Z,66.80
2017-08-29T05:28:19.877Z,62.10
2017-08-29T05:30:46.908Z,62.10
2017-08-29T05:33:13.950Z,61.90
2017-08-29T05:35:40.961Z,61.90
2017-08-29T05:38:08.032Z,61.80
2017-08-29T05:40:35.048Z,61.70
2017-08-29T05:43:02.071Z,62.10
2017-08-29T05:45:29.118Z,62.60
2017-08-29T05:47:56.162Z,62.40
2017-08-29T05:50:23.235Z,62.00
2017-08-29T05:52:50.255Z,62.00
2017-08-29T05:55:17.791Z,61.50
2017-08-29T05:57:49.178Z,61.60
2017-08-29T06:00:33.482Z,62.60
2017-08-29T06:03:01.207Z,62.80
2017-08-29T06:05:32.967Z,62.50
2017-08-29T06:08:03.363Z,62.30
2017-08-29T06:52:52.846Z,62.00
2017-08-29T06:55:19.882Z,64.90
2017-08-29T06:57:47.821Z,65.50
2017-08-29T07:00:14.974Z,64.70
2017-08-29T07:02:41.997Z,65.10
2017-08-29T07:05:09.047Z,63.90
2017-08-29T07:07:36.103Z,64.00
2017-08-29T07:10:03.120Z,64.20
2017-08-29T07:12:30.159Z,64.40
2017-08-29T07:14:57.210Z,64.30
2017-08-29T07:17:24.270Z,63.40
2017-08-29T07:19:51.299Z,63.80
2017-08-29T07:22:18.372Z,63.80
2017-08-29T07:24:45.419Z,63.90
2017-08-29T07:27:12.446Z,63.50
2017-08-29T07:29:40.934Z,64.10
2017-08-29T07:32:07.971Z,64.20
2017-08-29T07:34:35.033Z,65.90
2017-08-29T07:37:02.082Z,65.30
2017-08-29T07:39:29.139Z,65.90
2017-08-29T07:41:56.182Z,64.70
2017-08-29T07:44:23.211Z,65.00
2017-08-29T07:46:50.233Z,64.70
2017-08-29T07:49:17.270Z,63.80
2017-08-29T07:51:44.307Z,63.90
2017-08-29T07:54:11.347Z,64.70
2017-08-29T07:56:38.362Z,65.00
2017-08-29T07:59:05.430Z,65.20
2017-08-29T08:01:32.490Z,63.70
2017-08-29T08:03:59.530Z,64.40
2017-08-29T08:06:27.330Z,64.60
2017-08-29T08:08:54.369Z,64.50
2017-08-29T08:11:21.408Z,63.80
2017-08-29T08:13:48.439Z,64.40
2017-08-29T08:16:16.239Z,63.20
2017-08-29T08:18:43.269Z,63.20
2017-08-29T08:21:10.306Z,63.60
2017-08-29T08:23:37.339Z,63.90
2017-08-29T08:26:04.359Z,63.10
2017-08-29T08:28:31.403Z,64.30
2017-08-29T08:30:58.469Z,63.50
2017-08-29T08:33:25.479Z,63.60
2017-08-29T08:35:52.617Z,63.00
2017-08-29T08:38:19.679Z,62.40
2017-08-29T08:40:46.694Z,63.10
2017-08-29T08:43:13.729Z,62.70
2017-08-29T08:45:40.763Z,62.50
2017-08-29T08:48:07.819Z,62.00
2017-08-29T08:50:34.890Z,61.90
2017-08-29T08:53:01.907Z,62.30
2017-08-29T08:55:28.955Z,61.90
2017-08-29T08:57:55.990Z,62.30
2017-08-29T09:00:23.042Z,61.80
2017-08-29T09:02:50.082Z,61.50
2017-08-29T09:05:17.106Z,61.50
2017-08-29T09:07:44.163Z,61.60
2017-08-29T09:10:11.192Z,61.70
2017-08-29T09:12:38.249Z,60.60
2017-08-29T09:15:05.307Z,61.30
2017-08-29T09:17:32.358Z,60.80
2017-08-29T09:19:59.410Z,60.50
2017-08-29T09:22:26.439Z,60.10
2017-08-29T09:24:53.493Z,60.00
2017-08-29T09:27:20.562Z,60.50
2017-08-29T09:29:47.578Z,59.60
2017-08-29T09:32:14.637Z,60.30
2017-08-29T09:34:41.686Z,60.00
2017-08-29T09:37:08.730Z,57.20
2017-08-29T09:39:35.790Z,57.80
2017-08-29T09:42:02.818Z,58.00
2017-08-29T09:44:29.829Z,56.30
2017-08-29T09:46:56.885Z,56.00
2017-08-29T09:49:23.906Z,56.20
2017-08-29T09:51:50.950Z,56.10
2017-08-29T09:54:17.991Z,56.40
2017-08-29T09:56:45.007Z,56.30
2017-08-29T09:59:12.050Z,55.70
2017-08-29T10:01:39.083Z,56.20
2017-08-29T10:04:06.127Z,54.80
2017-08-29T10:06:33.171Z,54.90
2017-08-29T10:09:00.950Z,54.20
2017-08-29T10:11:28.013Z,54.00
2017-08-29T10:13:55.023Z,54.40
2017-08-29T10:16:22.091Z,53.80
2017-08-29T10:18:49.119Z,54.20
2017-08-29T10:21:16.189Z,55.00
2017-08-29T10:23:43.199Z,54.10
2017-08-29T10:26:10.244Z,52.50
2017-08-29T10:28:37.254Z,53.20
2017-08-29T10:31:04.283Z,52.90
2017-08-29T10:33:31.343Z,52.50
2017-08-29T10:35:58.391Z,51.40
2017-08-29T10:38:25.438Z,52.60
2017-08-29T10:40:52.503Z,52.70
2017-08-29T10:43:19.577Z,52.10
2017-08-29T10:45:46.658Z,50.00
2017-08-29T10:48:13.700Z,50.50
2017-08-29T10:50:41.176Z,48.50
2017-08-29T10:53:08.231Z,47.20
2017-08-29T10:55:35.263Z,46.20
2017-08-29T10:58:02.297Z,46.80
2017-08-29T11:00:29.345Z,45.80
2017-08-29T11:02:56.418Z,46.50
2017-08-29T11:05:24.196Z,45.90
2017-08-29T11:07:51.211Z,45.00
2017-08-29T11:10:18.262Z,46.20
2017-08-29T11:12:45.295Z,45.80
2017-08-29T11:15:12.335Z,46.10
2017-08-29T11:17:39.362Z,45.50
2017-08-29T11:20:06.411Z,45.10
2017-08-29T11:22:33.461Z,44.60
2017-08-29T11:25:00.487Z,44.50
2017-08-29T11:27:27.547Z,44.50
2017-08-29T11:29:54.584Z,45.30
2017-08-29T11:32:21.606Z,45.30
2017-08-29T11:34:48.678Z,45.20
2017-08-29T11:37:15.687Z,44.90
2017-08-29T11:39:42.759Z,44.50
2017-08-29T11:42:09.820Z,44.00
2017-08-29T11:44:36.854Z,44.40
2017-08-29T11:47:03.922Z,43.60
2017-08-29T11:49:30.968Z,43.30
2017-08-29T11:51:58.019Z,43.30
2017-08-29T11:54:25.058Z,43.70
2017-08-29T11:56:52.119Z,42.10
2017-08-29T11:59:19.155Z,42.20
2017-08-29T12:01:46.219Z,43.50
2017-08-29T12:04:13.263Z,44.70
2017-08-29T12:06:40.313Z,44.70
2017-08-29T12:09:07.340Z,45.30
2017-08-29T12:11:34.382Z,44.20
2017-08-29T12:14:01.413Z,43.50
2017-08-29T12:16:29.187Z,42.10
2017-08-29T12:18:56.239Z,41.90
2017-08-29T12:21:23.270Z,41.60
2017-08-29T12:23:50.339Z,44.20
2017-08-29T12:26:17.355Z,43.80
2017-08-29T12:28:44.374Z,43.50
2017-08-29T12:31:11.422Z,44.30
2017-08-29T12:33:38.470Z,43.00
2017-08-29T12:36:05.524Z,43.50
2017-08-29T12:38:32.572Z,44.00
2017-08-29T12:40:59.595Z,44.00
2017-08-29T12:43:26.652Z,44.10
2017-08-29T12:45:53.669Z,42.00
2017-08-29T12:48:20.753Z,42.80
2017-08-29T12:50:47.798Z,43.60
2017-08-29T12:53:14.835Z,43.30
2017-08-29T12:55:41.890Z,43.90
2017-08-29T12:58:08.903Z,39.90
2017-08-29T13:00:35.942Z,39.90
2017-08-29T13:03:02.972Z,41.60
2017-08-29T13:05:30.032Z,42.40
2017-08-29T13:07:57.047Z,43.00
2017-08-29T13:10:24.087Z,42.30
2017-08-29T13:12:51.136Z,42.30
2017-08-29T13:15:18.158Z,42.00
2017-08-29T13:17:45.205Z,40.80
2017-08-29T13:20:12.214Z,42.50
2017-08-29T13:22:39.258Z,43.10
2017-08-29T13:25:06.302Z,43.60
2017-08-29T13:27:33.331Z,42.80
2017-08-29T13:30:00.401Z,42.50
2017-08-29T13:32:27.415Z,43.00
2017-08-29T13:34:54.477Z,42.00
2017-08-29T13:37:21.519Z,42.00
2017-08-29T13:39:48.542Z,42.10
2017-08-29T13:42:15.590Z,41.90
2017-08-29T13:44:42.646Z,39.10
2017-08-29T13:47:09.704Z,37.80
2017-08-29T13:49:36.866Z,36.70
2017-08-29T13:52:03.919Z,36.70
2017-08-29T13:54:30.967Z,37.40
2017-08-29T13:56:57.986Z,39.40
2017-08-29T13:59:25.020Z,38.90
2017-08-29T14:01:52.062Z,38.80
2017-08-29T14:04:19.102Z,40.40
2017-08-29T14:06:46.929Z,38.70
2017-08-29T14:09:13.958Z,38.70
2017-08-29T14:11:40.969Z,38.70
2017-08-29T14:14:08.059Z,38.10
2017-08-29T14:16:35.087Z,38.30
2017-08-29T14:19:02.111Z,38.30
2017-08-29T14:21:29.144Z,38.30
2017-08-29T14:23:56.190Z,37.90
2017-08-29T14:26:23.247Z,38.10
2017-08-29T14:28:50.291Z,39.80
2017-08-29T14:31:17.311Z,38.50
2017-08-29T14:33:44.343Z,39.20
2017-08-29T14:36:11.354Z,39.20
2017-08-29T14:38:38.413Z,38.60
2017-08-29T14:41:05.447Z,38.10
2017-08-29T14:43:32.475Z,38.90
2017-08-29T14:45:59.535Z,38.00
2017-08-29T14:48:33.387Z,38.90
2017-08-29T14:51:00.426Z,39.10
2017-08-29T14:53:27.467Z,37.80
2017-08-29T14:55:54.511Z,38.70
2017-08-29T14:58:21.563Z,38.10
2017-08-29T15:00:48.583Z,38.30
2017-08-29T15:03:15.627Z,38.30
2017-08-29T15:05:43.319Z,38.60
2017-08-29T15:08:10.343Z,38.30
2017-08-29T15:10:37.377Z,38.30
2017-08-29T15:13:04.398Z,38.10
2017-08-29T15:15:32.187Z,38.60
2017-08-29T15:17:59.235Z,38.60
2017-08-29T15:20:27.019Z,39.60
2017-08-29T15:22:54.033Z,39.60
2017-08-29T15:25:21.095Z,39.50
2017-08-29T15:27:48.134Z,39.30
2017-08-29T15:30:15.156Z,39.40
2017-08-29T15:32:42.218Z,39.50
2017-08-29T15:35:09.227Z,39.20
2017-08-29T15:37:36.299Z,39.50
2017-08-29T15:40:03.368Z,39.70
2017-08-29T15:42:31.758Z,39.00
2017-08-29T15:44:58.782Z,40.00
2017-08-29T15:47:25.883Z,39.30
2017-08-29T15:49:53.514Z,39.30
2017-08-29T15:52:20.573Z,39.60
2017-08-29T15:54:47.638Z,40.10
2017-08-29T15:57:14.700Z,39.40
2017-08-29T15:59:41.728Z,40.20
2017-08-29T16:02:08.806Z,39.70
2017-08-29T16:04:35.863Z,40.20
2017-08-29T16:07:03.007Z,39.60
2017-08-29T16:09:30.052Z,39.30
2017-08-29T16:11:57.403Z,39.80
2017-08-29T16:14:24.716Z,39.40
2017-08-29T16:16:52.048Z,40.00
2017-08-29T16:19:19.123Z,38.80
2017-08-29T16:21:46.142Z,39.60
2017-08-29T16:24:13.200Z,38.80
2017-08-29T16:26:40.238Z,39.60
2017-08-29T16:29:07.264Z,39.10
2017-08-29T16:31:34.311Z,39.90
2017-08-29T16:34:01.364Z,40.70
2017-08-29T16:36:28.412Z,39.30
2017-08-29T16:38:55.438Z,39.40
2017-08-29T16:41:22.493Z,40.10
2017-08-29T16:43:50.244Z,40.30
2017-08-29T16:46:17.286Z,40.50
2017-08-29T16:48:44.344Z,40.90
2017-08-29T16:51:11.409Z,40.50
2017-08-29T16:53:38.438Z,40.50
2017-08-29T16:56:05.507Z,40.70
2017-08-29T16:58:32.559Z,41.10
2017-08-29T17:01:00.109Z,41.50
2017-08-29T17:03:27.703Z,41.70
2017-08-29T17:05:54.832Z,41.60
2017-08-29T17:08:21.860Z,41.90
2017-08-29T17:10:49.708Z,42.80
2017-08-29T17:13:16.778Z,42.10
2017-08-29T17:15:44.028Z,42.70
2017-08-29T17:18:11.071Z,42.40
2017-08-29T17:20:38.119Z,42.40
2017-08-29T17:23:05.187Z,42.10
2017-08-29T17:25:32.243Z,41.90
2017-08-29T17:27:59.349Z,41.60
2017-08-29T17:30:26.375Z,42.10
2017-08-29T17:32:53.686Z,43.90
2017-08-29T17:35:20.732Z,44.70
2017-08-29T17:37:48.000Z,45.50
2017-08-29T17:40:15.064Z,46.70
2017-08-29T17:42:43.327Z,47.50
2017-08-29T17:45:11.148Z,48.00
2017-08-29T17:47:38.286Z,48.10
2017-08-29T17:50:06.016Z,48.50
2017-08-29T17:52:33.061Z,48.40
2017-08-29T17:55:00.489Z,49.50
2017-08-29T17:57:28.389Z,49.80
2017-08-29T17:59:55.427Z,48.70
2017-08-29T18:02:22.538Z,49.50
2017-08-29T18:04:49.555Z,50.40
2017-08-29T18:07:16.580Z,50.40
2017-08-29T18:09:43.638Z,49.00
2017-08-29T18:12:11.165Z,49.50
2017-08-29T18:14:38.242Z,49.50
2017-08-29T18:17:05.263Z,49.50
2017-08-29T18:19:32.308Z,49.60
2017-08-29T18:21:59.347Z,49.90
2017-08-29T18:24:26.374Z,51.30
2017-08-29T18:26:53.416Z,51.70
2017-08-29T18:29:20.499Z,52.50
2017-08-29T18:31:47.514Z,52.40
2017-08-29T18:34:14.702Z,52.00
2017-08-29T18:36:41.715Z,51.70
2017-08-29T18:39:09.505Z,51.90
2017-08-29T18:41:36.644Z,51.90
2017-08-29T18:44:03.679Z,51.70
2017-08-29T18:46:31.492Z,53.10
2017-08-29T18:48:58.517Z,52.90
2017-08-29T18:51:25.579Z,53.50
2017-08-29T18:53:52.608Z,53.90
2017-08-29T18:56:19.636Z,53.90
2017-08-29T18:58:47.491Z,53.40
2017-08-29T19:01:14.536Z,53.30
2017-08-29T19:03:41.596Z,56.10
2017-08-29T19:06:08.630Z,57.70
2017-08-29T19:08:35.647Z,57.20
2017-08-29T19:11:02.719Z,55.50
2017-08-29T19:13:29.744Z,56.80
2017-08-29T19:15:56.811Z,57.30
2017-08-29T19:18:23.845Z,57.40
2017-08-29T19:20:50.911Z,55.80
2017-08-29T19:23:17.995Z,56.00
2017-08-29T19:25:45.043Z,57.70
2017-08-29T19:28:12.079Z,57.80
2017-08-29T19:30:39.152Z,57.80
2017-08-29T19:33:06.174Z,58.80
2017-08-29T19:35:33.229Z,58.30
2017-08-29T19:38:01.336Z,60.10
2017-08-29T19:40:29.074Z,59.70
2017-08-29T19:42:56.862Z,60.40
2017-08-29T19:45:23.959Z,60.10
2017-08-29T19:47:51.001Z,60.30
2017-08-29T19:50:18.046Z,60.20
2017-08-29T19:52:45.120Z,60.00
2017-08-29T19:55:12.155Z,60.10
2017-08-29T19:57:39.244Z,60.00
2017-08-29T20:00:06.258Z,60.80
2017-08-29T20:02:33.656Z,61.30
2017-08-29T20:05:00.679Z,61.20
2017-08-29T20:07:28.024Z,60.90
2017-08-29T20:09:55.408Z,60.70
2017-08-29T20:12:22.419Z,60.50
2017-08-29T20:14:49.494Z,60.40
2017-08-29T20:17:16.567Z,60.90
2017-08-29T20:19:43.690Z,60.70
2017-08-29T20:22:10.761Z,60.40
2017-08-29T20:24:39.819Z,60.30
2017-08-29T20:27:07.194Z,60.40
2017-08-29T20:39:20.031Z,61.20
2017-08-29T20:41:47.068Z,61.20
2017-08-29T20:44:14.919Z,60.70
2017-08-29T20:46:42.759Z,60.60
2017-08-29T20:49:10.548Z,60.40
2017-08-29T20:51:37.663Z,60.30
2017-08-29T20:54:04.747Z,60.40
2017-08-29T20:56:31.770Z,61.10
2017-08-29T20:58:59.654Z,61.90
2017-08-29T21:01:26.679Z,62.80
2017-08-29T21:03:54.490Z,63.00
2017-08-29T21:06:21.603Z,62.90
2017-08-29T21:08:48.640Z,62.50
2017-08-29T21:11:15.687Z,61.60
2017-08-29T21:13:42.730Z,61.60
2017-08-29T21:16:09.760Z,61.30
2017-08-29T21:18:36.811Z,61.20
2017-08-29T21:21:03.828Z,61.50
2017-08-29T21:23:30.892Z,61.30
2017-08-29T21:25:57.918Z,61.20
2017-08-29T21:28:24.925Z,61.20
2017-08-29T21:30:52.760Z,61.00
2017-08-29T21:33:19.788Z,61.00
2017-08-29T21:35:46.835Z,61.20
2017-08-29T21:38:13.855Z,61.60
2017-08-29T21:40:40.916Z,61.60
2017-08-29T21:43:07.962Z,62.50
2017-08-29T21:45:34.977Z,63.10
2017-08-29T21:48:02.057Z,64.20
2017-08-29T21:50:29.080Z,64.30
2017-08-29T21:52:56.900Z,62.40
2017-08-29T21:55:23.939Z,62.40
2017-08-29T21:57:51.010Z,62.10
2017-08-29T22:00:18.018Z,62.20
2017-08-29T22:02:45.052Z,62.10
2017-08-29T22:05:12.098Z,61.60
2017-08-29T22:07:39.127Z,61.50
2017-08-29T22:10:06.200Z,61.50
2017-08-29T22:12:33.250Z,61.40
2017-08-29T22:15:00.270Z,61.70
2017-08-29T22:17:27.328Z,61.50
2017-08-29T22:19:54.343Z,61.40
2017-08-29T22:22:22.138Z,61.30
2017-08-29T22:24:49.172Z,61.20
2017-08-29T22:27:16.220Z,61.40
2017-08-29T22:29:43.262Z,61.70
2017-08-29T22:32:10.328Z,62.30
2017-08-29T22:34:37.372Z,63.60
2017-08-29T22:37:05.183Z,63.10
2017-08-29T22:39:32.255Z,63.10
2017-08-29T22:41:59.278Z,62.50
2017-08-29T22:44:26.298Z,62.40
2017-08-29T22:46:53.354Z,62.60
2017-08-29T22:49:20.380Z,62.30
2017-08-29T22:51:47.395Z,62.20
2017-08-29T22:54:14.449Z,62.10
2017-08-29T22:56:41.515Z,61.70
2017-08-29T22:59:08.539Z,61.80
2017-08-29T23:01:35.583Z,61.90
2017-08-29T23:04:02.635Z,61.70
2017-08-29T23:06:29.652Z,61.80
2017-08-29T23:08:56.691Z,62.40
2017-08-29T23:11:23.757Z,63.30
2017-08-29T23:13:50.810Z,64.30
2017-08-29T23:16:17.848Z,65.40
2017-08-29T23:18:44.913Z,66.80
2017-08-29T23:21:11.958Z,67.40
2017-08-29T23:23:38.988Z,66.00
2017-08-29T23:26:06.039Z,63.90
2017-08-29T23:28:33.075Z,62.90
2017-08-29T23:31:00.077Z,63.30
2017-08-29T23:33:27.158Z,63.00
2017-08-29T23:35:54.183Z,62.70
2017-08-29T23:38:21.204Z,62.40
2017-08-29T23:40:48.279Z,62.30
2017-08-29T23:43:16.063Z,66.50
2017-08-29T23:45:43.851Z,64.50
2017-08-29T23:48:10.902Z,64.40
2017-08-29T23:50:37.943Z,63.20
2017-08-29T23:53:04.962Z,62.90
2017-08-29T23:55:32.009Z,63.10
2017-08-29T23:57:59.068Z,62.50
